Time;durP1;ratioP1;P1;durP2;ratioP2;P2;SDS_P1;SDS_P2;PMS_P1;PMS_P2;Temp;Humidity;BMP_temperature;BMP_pressure;BME280_temperature;BME280_humidity;BME280_pressure;Samples;Min_cycle;Max_cycle;Signal;HPM_P1;HPM_P2
2023/12/11 00:00:21;;;;;;;1.40;0.50;;;;;;;9.66;100.00;95347.88;4996923;28;20246;-70
2023/12/11 00:02:47;;;;;;;0.53;0.53;;;;;;;9.65;100.00;95350.66;4998057;28;20206;-70
2023/12/11 00:05:14;;;;;;;1.03;0.60;;;;;;;9.47;100.00;95337.19;5002632;28;20410;-70
2023/12/11 00:07:42;;;;;;;1.80;0.40;;;;;;;9.72;100.00;95344.44;5005321;28;20217;-70
2023/12/11 00:10:09;;;;;;;1.20;0.50;;;;;;;9.67;100.00;95356.56;4996650;28;20233;-70
2023/12/11 00:12:36;;;;;;;0.40;0.40;;;;;;;9.59;100.00;95354.09;4997550;28;20210;-70
2023/12/11 00:15:03;;;;;;;1.50;0.60;;;;;;;9.63;100.00;95365.84;4997301;28;20305;-70
2023/12/11 00:17:30;;;;;;;0.30;0.30;;;;;;;9.48;100.00;95352.81;4997567;28;20206;-71
2023/12/11 00:19:56;;;;;;;1.63;0.50;;;;;;;9.49;100.00;95353.59;4997225;28;20231;-70
2023/12/11 00:22:23;;;;;;;0.97;0.60;;;;;;;9.39;100.00;95342.59;4997384;28;20206;-70
2023/12/11 00:24:51;;;;;;;1.13;0.40;;;;;;;9.65;100.00;95353.28;4997355;28;20202;-70
2023/12/11 00:27:17;;;;;;;1.70;0.70;;;;;;;9.29;100.00;95352.63;4997650;28;20217;-70
2023/12/11 00:29:44;;;;;;;1.67;0.60;;;;;;;9.42;100.00;95358.00;4997728;28;20232;-70
2023/12/11 00:32:10;;;;;;;5.97;0.90;;;;;;;9.25;100.00;95354.03;4996792;28;20210;-70
2023/12/11 00:34:37;;;;;;;0.97;0.63;;;;;;;9.45;100.00;95355.78;4996931;28;20204;-70
2023/12/11 00:37:04;;;;;;;0.50;0.50;;;;;;;9.35;100.00;95339.53;4997860;28;20209;-70
2023/12/11 00:39:30;;;;;;;0.60;0.50;;;;;;;9.47;100.00;95352.97;4996215;28;20237;-70
2023/12/11 00:41:58;;;;;;;0.50;0.50;;;;;;;9.66;100.00;95361.03;4997240;28;20210;-70
2023/12/11 00:44:25;;;;;;;0.40;0.40;;;;;;;9.46;100.00;95348.75;4997286;28;20213;-70
2023/12/11 00:46:51;;;;;;;0.97;0.50;;;;;;;9.58;100.00;95355.09;4997695;28;20232;-70
2023/12/11 00:49:18;;;;;;;0.83;0.60;;;;;;;9.53;100.00;95349.59;4996046;28;20207;-70
2023/12/11 00:51:46;;;;;;;0.53;0.30;;;;;;;9.59;100.00;95338.31;4997375;28;20226;-70
2023/12/11 00:54:12;;;;;;;1.00;0.50;;;;;;;9.51;100.00;95343.69;4996875;28;20229;-70
2023/12/11 00:56:39;;;;;;;0.50;0.50;;;;;;;9.41;100.00;95351.13;4996791;28;20214;-70
2023/12/11 00:59:07;;;;;;;0.50;0.40;;;;;;;9.61;100.00;95358.16;4996683;28;20202;-70
2023/12/11 01:01:33;;;;;;;0.67;0.53;;;;;;;9.43;100.00;95346.47;4997545;28;20226;-70
2023/12/11 01:04:00;;;;;;;0.73;0.60;;;;;;;9.46;100.00;95343.47;4996774;28;20586;-70
2023/12/11 01:06:26;;;;;;;1.47;0.53;;;;;;;9.32;100.00;95355.72;4999849;28;20577;-70
2023/12/11 01:08:54;;;;;;;0.80;0.40;;;;;;;9.35;100.00;95351.88;5000825;28;20304;-70
2023/12/11 01:11:20;;;;;;;0.70;0.50;;;;;;;9.55;100.00;95353.66;4999991;28;20687;-70
2023/12/11 01:13:47;;;;;;;0.73;0.50;;;;;;;9.48;100.00;95352.81;5002243;28;20199;-70
2023/12/11 01:16:15;;;;;;;0.43;0.43;;;;;;;9.61;100.00;95357.31;5006687;28;20195;-70
2023/12/11 01:18:41;;;;;;;0.40;0.40;;;;;;;9.28;100.00;95351.03;5000192;28;20203;-70
2023/12/11 01:21:08;;;;;;;0.40;0.40;;;;;;;9.32;100.00;95362.78;5000327;28;20240;-70
2023/12/11 01:23:34;;;;;;;0.30;0.30;;;;;;;9.33;100.00;95367.84;5008639;28;20208;-70
2023/12/11 01:26:01;;;;;;;0.40;0.40;;;;;;;9.30;100.00;95391.88;5012990;28;20201;-70
2023/12/11 01:28:27;;;;;;;4.20;0.60;;;;;;;9.20;100.00;95378.25;5018336;28;20202;-70
2023/12/11 01:30:54;;;;;;;0.40;0.40;;;;;;;9.13;100.00;95371.31;5017925;28;20722;-70
2023/12/11 01:33:22;;;;;;;0.50;0.50;;;;;;;9.14;100.00;95383.47;5017841;28;20689;-70
2023/12/11 01:35:48;;;;;;;0.63;0.43;;;;;;;9.14;100.00;95391.34;5017445;28;20208;-70
2023/12/11 01:38:15;;;;;;;0.40;0.40;;;;;;;9.03;100.00;95381.31;5019376;28;20201;-70
2023/12/11 01:40:41;;;;;;;3.17;0.80;;;;;;;9.05;100.00;95381.13;5010796;28;20437;-70
2023/12/11 01:43:12;;;;;;;2.40;0.80;;;;;;;9.29;100.00;95363.97;5018673;28;20212;-70
2023/12/11 01:45:39;;;;;;;0.43;0.43;;;;;;;9.11;100.00;95376.75;5018128;28;20202;-70
2023/12/11 01:48:05;;;;;;;1.43;0.70;;;;;;;9.17;100.00;95380.44;5014283;28;20202;-70
2023/12/11 01:50:33;;;;;;;0.93;0.50;;;;;;;9.21;100.00;95394.84;5000243;28;20222;-70
2023/12/11 01:53:01;;;;;;;2.80;0.50;;;;;;;9.02;100.00;95384.16;5000003;28;20210;-70
2023/12/11 01:55:29;;;;;;;0.70;0.50;;;;;;;9.24;100.00;95397.06;4999486;28;20206;-70
2023/12/11 01:57:56;;;;;;;0.70;0.70;;;;;;;9.03;100.00;95383.94;5000358;28;20221;-70
2023/12/11 02:00:23;;;;;;;2.47;0.40;;;;;;;9.08;100.00;95391.28;4998823;28;21115;-70
2023/12/11 02:02:51;;;;;;;1.33;0.47;;;;;;;9.35;100.00;95396.56;5000286;28;20206;-70
2023/12/11 02:05:17;;;;;;;0.60;0.60;;;;;;;9.17;100.00;95404.09;4999108;28;20198;-70
2023/12/11 02:07:45;;;;;;;0.67;0.50;;;;;;;9.32;100.00;95403.03;4999897;28;20202;-71
2023/12/11 02:10:12;;;;;;;4.83;0.80;;;;;;;9.28;100.00;95406.22;4998575;28;20218;-70
2023/12/11 02:12:40;;;;;;;3.90;0.47;;;;;;;9.23;100.00;95408.63;4999629;28;20213;-71
2023/12/11 02:15:07;;;;;;;0.87;0.70;;;;;;;9.36;100.00;95406.09;4999627;28;20202;-71
2023/12/11 02:17:34;;;;;;;0.40;0.40;;;;;;;9.03;100.00;95409.44;4999265;28;20199;-71
2023/12/11 02:20:00;;;;;;;0.80;0.40;;;;;;;9.27;100.00;95402.78;4999595;28;20229;-71
2023/12/11 02:22:27;;;;;;;0.60;0.60;;;;;;;9.29;100.00;95399.94;5005311;28;20205;-71
2023/12/11 02:24:59;;;;;;;0.40;0.40;;;;;;;9.24;100.00;95404.97;4999351;28;20211;-71
2023/12/11 02:27:27;;;;;;;0.60;0.60;;;;;;;9.38;100.00;95404.91;4999299;28;21022;-71
2023/12/11 02:29:55;;;;;;;3.43;0.90;;;;;;;9.29;100.00;95407.84;4998769;28;20231;-71
2023/12/11 02:32:22;;;;;;;1.97;0.90;;;;;;;9.24;100.00;95407.59;4999254;28;20670;-70
2023/12/11 02:34:49;;;;;;;0.57;0.57;;;;;;;9.37;100.00;95407.72;4999231;28;20206;-70
2023/12/11 02:37:15;;;;;;;0.63;0.60;;;;;;;9.32;100.00;95395.13;5004524;28;20203;-71
2023/12/11 02:39:42;;;;;;;0.50;0.47;;;;;;;9.41;100.00;95390.56;4998930;28;20202;-70
2023/12/11 02:42:09;;;;;;;0.40;0.40;;;;;;;9.37;100.00;95405.09;4998979;28;20211;-70
2023/12/11 02:44:36;;;;;;;0.67;0.67;;;;;;;9.54;100.00;95403.81;4998171;28;20289;-71
2023/12/11 02:47:03;;;;;;;1.07;0.97;;;;;;;9.28;100.00;95395.72;5002346;28;20258;-71
2023/12/11 02:49:29;;;;;;;0.50;0.50;;;;;;;9.33;100.00;95407.28;4998935;28;20209;-71
2023/12/11 02:51:56;;;;;;;0.30;0.30;;;;;;;9.33;100.00;95407.28;4998473;28;20198;-70
2023/12/11 02:54:22;;;;;;;1.07;0.57;;;;;;;9.30;100.00;95415.53;4998400;28;21274;-71
2023/12/11 02:56:49;;;;;;;0.50;0.50;;;;;;;9.30;100.00;95428.66;5007149;28;20202;-70
2023/12/11 02:59:15;;;;;;;0.57;0.57;;;;;;;9.27;100.00;95426.44;4997658;28;21133;-71
2023/12/11 03:01:43;;;;;;;0.70;0.70;;;;;;;9.48;100.00;95418.53;5000568;28;20233;-71
2023/12/11 03:04:10;;;;;;;0.80;0.80;;;;;;;9.43;100.00;95422.72;4998612;28;20209;-70
2023/12/11 03:06:36;;;;;;;0.47;0.47;;;;;;;9.46;100.00;95409.22;4997685;28;20665;-70
2023/12/11 03:09:03;;;;;;;0.40;0.40;;;;;;;9.46;100.00;95417.09;4998139;28;20210;-71
2023/12/11 03:11:30;;;;;;;0.50;0.50;;;;;;;9.33;100.00;95406.44;4998199;28;20641;-70
2023/12/11 03:13:57;;;;;;;2.20;0.60;;;;;;;9.33;100.00;95409.91;4998398;28;20210;-71
2023/12/11 03:16:23;;;;;;;0.40;0.40;;;;;;;9.44;100.00;95409.38;4997890;28;20221;-70
2023/12/11 03:18:51;;;;;;;0.90;0.87;;;;;;;9.65;100.00;95405.91;4997489;28;20673;-70
2023/12/11 03:21:18;;;;;;;1.10;0.80;;;;;;;9.52;100.00;95393.50;4998212;28;20280;-70
2023/12/11 03:23:44;;;;;;;0.90;0.50;;;;;;;9.44;100.00;95388.34;4997416;28;20203;-70
2023/12/11 03:26:11;;;;;;;1.77;1.30;;;;;;;9.43;100.00;95391.16;4997796;28;20213;-70
2023/12/11 03:28:37;;;;;;;0.80;0.73;;;;;;;9.36;100.00;95385.88;4997046;28;20222;-70
2023/12/11 03:31:04;;;;;;;1.33;0.70;;;;;;;9.41;100.00;95388.75;5005694;28;20716;-70
2023/12/11 03:33:31;;;;;;;0.47;0.47;;;;;;;9.46;100.00;95380.28;4997644;28;20202;-71
2023/12/11 03:35:59;;;;;;;1.20;0.50;;;;;;;9.68;100.00;95387.13;4998226;28;20213;-70
2023/12/11 03:38:25;;;;;;;1.60;0.50;;;;;;;9.55;100.00;95384.41;4997393;28;20566;-71
2023/12/11 03:40:52;;;;;;;0.63;0.63;;;;;;;9.64;100.00;95385.88;4997417;28;20237;-71
2023/12/11 03:43:18;;;;;;;0.63;0.63;;;;;;;9.54;100.00;95388.03;4997569;28;20209;-70
2023/12/11 03:45:47;;;;;;;0.83;0.53;;;;;;;9.62;100.00;95388.69;4997879;28;20211;-70
2023/12/11 03:48:14;;;;;;;2.20;0.70;;;;;;;9.44;100.00;95375.19;4998289;28;20210;-70
2023/12/11 03:50:40;;;;;;;0.40;0.40;;;;;;;9.43;100.00;95375.41;4998376;28;20222;-70
2023/12/11 03:53:10;;;;;;;0.60;0.53;;;;;;;9.73;100.00;95367.13;4998254;28;20685;-70
2023/12/11 03:55:36;;;;;;;2.80;0.50;;;;;;;9.64;100.00;95373.53;4997441;28;20296;-71
2023/12/11 03:58:03;;;;;;;0.60;0.60;;;;;;;9.49;100.00;95385.97;4998318;28;20206;-70
2023/12/11 04:00:29;;;;;;;0.50;0.50;;;;;;;9.35;100.00;95381.59;4998221;28;20233;-70
2023/12/11 04:02:56;;;;;;;1.13;0.60;;;;;;;9.55;100.00;95379.16;4998191;28;20221;-70
2023/12/11 04:05:22;;;;;;;0.70;0.40;;;;;;;9.57;100.00;95387.66;5004704;28;20209;-71
2023/12/11 04:07:49;;;;;;;0.87;0.60;;;;;;;9.64;100.00;95391.16;4997406;28;20573;-71
2023/12/11 04:10:17;;;;;;;0.50;0.50;;;;;;;9.62;100.00;95386.06;4997686;28;20218;-71
2023/12/11 04:12:43;;;;;;;2.63;0.80;;;;;;;9.46;100.00;95385.56;4997873;28;20229;-70
2023/12/11 04:15:11;;;;;;;0.47;0.47;;;;;;;9.58;100.00;95379.56;4997452;28;20217;-71
2023/12/11 04:17:37;;;;;;;0.40;0.40;;;;;;;9.67;100.00;95382.88;5003492;28;20202;-70
2023/12/11 04:20:05;;;;;;;0.50;0.50;;;;;;;9.82;100.00;95379.91;4997606;28;20229;-71
2023/12/11 04:22:31;;;;;;;0.60;0.50;;;;;;;9.68;100.00;95372.16;4997104;28;20319;-70
2023/12/11 04:24:58;;;;;;;1.27;0.50;;;;;;;9.74;100.00;95371.38;4997554;28;20217;-71
2023/12/11 04:27:25;;;;;;;2.40;0.70;;;;;;;9.70;100.00;95362.25;4998026;28;20213;-71
2023/12/11 04:29:52;;;;;;;2.03;0.80;;;;;;;9.62;100.00;95365.00;4997178;28;20237;-71
2023/12/11 04:32:19;;;;;;;0.43;0.43;;;;;;;9.44;100.00;95371.78;4997558;28;20203;-71
2023/12/11 04:34:45;;;;;;;0.77;0.77;;;;;;;9.54;100.00;95357.28;4997695;28;20206;-70
2023/12/11 04:37:12;;;;;;;0.70;0.67;;;;;;;9.52;100.00;95353.22;4997238;28;20206;-71
2023/12/11 04:39:38;;;;;;;0.97;0.63;;;;;;;9.50;100.00;95345.53;5006047;28;20209;-71
2023/12/11 04:42:05;;;;;;;1.47;0.70;;;;;;;9.46;100.00;95327.72;5001552;28;20238;-71
2023/12/11 04:44:33;;;;;;;1.23;0.73;;;;;;;9.46;100.00;95311.94;5001367;28;20195;-71
2023/12/11 04:46:59;;;;;;;1.03;0.67;;;;;;;9.35;100.00;95309.81;5001474;28;20210;-71
2023/12/11 04:49:26;;;;;;;0.97;0.77;;;;;;;9.24;100.00;95316.41;5000792;28;20689;-70
2023/12/11 04:51:52;;;;;;;0.70;0.70;;;;;;;9.45;100.00;95320.81;5001354;28;20218;-70
2023/12/11 04:54:19;;;;;;;0.80;0.70;;;;;;;9.49;100.00;95329.94;5000433;28;20198;-70
2023/12/11 04:56:45;;;;;;;1.30;1.00;;;;;;;9.54;100.00;95333.63;5001140;28;20215;-71
2023/12/11 04:59:12;;;;;;;0.87;0.77;;;;;;;9.57;100.00;95356.91;5000713;28;20211;-71
2023/12/11 05:01:39;;;;;;;1.03;0.70;;;;;;;9.68;100.00;95384.50;5000815;28;20226;-70
2023/12/11 05:04:06;;;;;;;2.07;0.90;;;;;;;9.57;100.00;95385.00;5001448;28;20213;-70
2023/12/11 05:06:32;;;;;;;1.60;1.03;;;;;;;9.55;100.00;95379.16;5000897;28;21133;-71
2023/12/11 05:08:59;;;;;;;1.07;0.90;;;;;;;9.70;100.00;95380.66;5000868;28;20202;-71
2023/12/11 05:11:25;;;;;;;1.77;0.67;;;;;;;9.71;100.00;95393.63;5000300;28;20230;-70
2023/12/11 05:13:52;;;;;;;1.07;0.93;;;;;;;9.58;100.00;95402.44;5001963;28;20213;-71
2023/12/11 05:16:18;;;;;;;2.33;1.30;;;;;;;9.60;100.00;95390.72;5000603;28;20661;-70
2023/12/11 05:18:46;;;;;;;1.63;0.90;;;;;;;9.85;100.00;95390.09;4999850;28;20205;-70
2023/12/11 05:21:12;;;;;;;1.90;0.97;;;;;;;9.72;100.00;95389.16;5000611;28;20226;-70
2023/12/11 05:23:39;;;;;;;1.73;1.00;;;;;;;9.68;100.00;95370.31;5000709;28;20669;-70
2023/12/11 05:26:06;;;;;;;1.90;0.80;;;;;;;9.70;100.00;95352.53;5000805;28;20203;-71
2023/12/11 05:28:32;;;;;;;1.20;1.10;;;;;;;9.72;100.00;95366.31;4999650;28;20206;-71
2023/12/11 05:30:59;;;;;;;6.53;1.67;;;;;;;9.70;100.00;95378.84;5001119;28;20222;-71
2023/12/11 05:33:25;;;;;;;0.90;0.90;;;;;;;9.76;100.00;95359.66;4999761;28;20207;-71
2023/12/11 05:35:53;;;;;;;0.70;0.70;;;;;;;9.98;100.00;95369.13;5000467;28;20210;-70
2023/12/11 05:38:19;;;;;;;2.37;1.00;;;;;;;9.82;100.00;95366.78;5000231;28;20209;-71
2023/12/11 05:40:46;;;;;;;0.90;0.90;;;;;;;9.71;100.00;95369.13;5003331;28;20219;-71
2023/12/11 05:43:13;;;;;;;6.20;1.17;;;;;;;9.56;100.00;95359.72;5000320;28;20285;-70
2023/12/11 05:45:39;;;;;;;0.83;0.80;;;;;;;9.78;100.00;95365.53;5000132;28;20297;-71
2023/12/11 05:48:07;;;;;;;3.77;1.53;;;;;;;9.88;100.00;95381.78;5000234;28;20214;-71
2023/12/11 05:50:33;;;;;;;4.70;1.20;;;;;;;9.88;100.00;95378.38;4998061;28;20334;-71
2023/12/11 05:53:01;;;;;;;1.40;1.20;;;;;;;10.02;100.00;95373.00;5000616;28;20206;-71
2023/12/11 05:55:28;;;;;;;0.90;0.80;;;;;;;9.85;100.00;95370.84;4999492;28;20440;-71
2023/12/11 05:57:54;;;;;;;1.10;1.00;;;;;;;9.88;100.00;95371.25;5000172;28;20211;-70
2023/12/11 06:00:21;;;;;;;1.40;1.07;;;;;;;9.79;100.00;95350.59;4999482;28;20227;-70
2023/12/11 06:02:48;;;;;;;2.63;1.20;;;;;;;10.01;100.00;95328.47;4999737;28;20381;-71
2023/12/11 06:05:14;;;;;;;1.23;1.00;;;;;;;9.94;100.00;95328.41;5000187;28;20221;-70
2023/12/11 06:07:41;;;;;;;2.43;1.13;;;;;;;10.05;100.00;95325.22;5000089;28;20210;-70
2023/12/11 06:10:09;;;;;;;0.87;0.77;;;;;;;10.22;100.00;95309.91;4999484;28;20231;-70
2023/12/11 06:12:35;;;;;;;1.37;0.90;;;;;;;9.94;100.00;95303.88;4999370;28;20220;-71
2023/12/11 06:15:02;;;;;;;1.20;0.90;;;;;;;10.09;100.00;95284.34;5000261;28;20206;-70
2023/12/11 06:17:28;;;;;;;1.67;1.30;;;;;;;10.11;100.00;95305.22;4998997;28;20576;-70
2023/12/11 06:19:55;;;;;;;1.30;0.97;;;;;;;9.97;100.00;95306.97;4998870;28;20226;-70
2023/12/11 06:22:21;;;;;;;1.30;0.90;;;;;;;10.11;100.00;95313.94;5000146;28;20227;-70
2023/12/11 06:24:48;;;;;;;0.97;0.87;;;;;;;10.10;100.00;95316.75;4999288;28;20222;-69
2023/12/11 06:27:15;;;;;;;1.63;0.93;;;;;;;10.23;100.00;95333.41;4999961;28;20244;-70
2023/12/11 06:29:42;;;;;;;2.70;1.30;;;;;;;10.02;100.00;95346.69;4998910;28;20213;-70
2023/12/11 06:32:09;;;;;;;4.77;2.17;;;;;;;10.13;100.00;95340.06;4999446;28;20222;-70
2023/12/11 06:34:35;;;;;;;4.97;2.60;;;;;;;10.15;100.00;95332.78;4999277;28;20755;-69
2023/12/11 06:37:02;;;;;;;3.23;2.00;;;;;;;10.13;100.00;95326.88;4999752;28;20210;-70
2023/12/11 06:39:28;;;;;;;2.83;1.77;;;;;;;10.15;100.00;95324.88;4998686;28;20207;-69
2023/12/11 06:41:55;;;;;;;4.47;2.00;;;;;;;10.14;100.00;95315.34;4999447;28;20223;-70
2023/12/11 06:44:22;;;;;;;7.97;2.83;;;;;;;10.23;100.00;95301.00;4998786;28;20210;-69
2023/12/11 06:46:49;;;;;;;6.10;2.53;;;;;;;10.09;100.00;95288.81;4998839;28;21019;-69
2023/12/11 06:49:15;;;;;;;5.43;2.50;;;;;;;10.07;100.00;95294.28;4998700;28;20210;-70
2023/12/11 06:51:42;;;;;;;4.87;2.57;;;;;;;10.01;100.00;95297.69;4999203;28;20229;-69
2023/12/11 06:54:09;;;;;;;4.07;2.30;;;;;;;10.00;100.00;95306.56;4999097;28;20217;-70
2023/12/11 06:56:35;;;;;;;2.90;2.20;;;;;;;9.95;100.00;95308.16;5000867;28;20210;-69
2023/12/11 06:59:01;;;;;;;5.33;1.63;;;;;;;9.94;100.00;95315.25;5004346;28;20209;-71
2023/12/11 07:01:30;;;;;;;2.17;1.43;;;;;;;9.92;100.00;95325.13;5001827;28;20234;-71
2023/12/11 07:03:56;;;;;;;1.33;1.13;;;;;;;9.75;100.00;95331.72;4998935;28;20210;-70
2023/12/11 07:06:23;;;;;;;2.73;1.70;;;;;;;9.82;100.00;95329.13;5001761;28;20202;-71
2023/12/11 07:08:50;;;;;;;4.33;1.50;;;;;;;9.81;100.00;95323.06;4999323;28;20571;-71
2023/12/11 07:11:17;;;;;;;2.77;1.87;;;;;;;9.85;100.00;95310.31;5008415;28;20245;-71
2023/12/11 07:13:43;;;;;;;1.60;1.50;;;;;;;9.79;100.00;95309.28;5012920;28;20642;-69
2023/12/11 07:16:10;;;;;;;1.67;1.43;;;;;;;9.81;100.00;95299.41;5017634;28;20210;-70
2023/12/11 07:18:39;;;;;;;1.60;1.40;;;;;;;9.86;100.00;95294.38;5014423;28;20205;-69
2023/12/11 07:21:09;;;;;;;3.00;1.50;;;;;;;9.80;100.00;95296.94;5015644;28;20238;-69
2023/12/11 07:23:35;;;;;;;6.80;2.17;;;;;;;9.67;100.00;95288.97;5012420;28;20257;-69
2023/12/11 07:26:04;;;;;;;4.37;1.80;;;;;;;9.54;100.00;95288.91;5007658;28;20203;-69
2023/12/11 07:28:30;;;;;;;8.13;2.43;;;;;;;9.62;100.00;95301.91;5025768;28;20329;-69
2023/12/11 07:30:58;;;;;;;2.93;1.57;;;;;;;9.57;100.00;95306.13;5011198;28;20229;-69
2023/12/11 07:33:25;;;;;;;3.10;2.00;;;;;;;9.58;100.00;95320.91;5011315;28;20285;-69
2023/12/11 07:35:53;;;;;;;5.30;1.90;;;;;;;9.73;100.00;95298.72;5012795;28;20202;-68
2023/12/11 07:38:19;;;;;;;1.90;1.60;;;;;;;9.63;100.00;95287.75;5015592;28;20198;-69
2023/12/11 07:40:46;;;;;;;4.50;2.13;;;;;;;9.61;100.00;95278.41;5010297;28;20218;-70
2023/12/11 07:43:12;;;;;;;4.77;2.60;;;;;;;9.63;100.00;95281.69;5014551;28;20253;-69
2023/12/11 07:45:39;;;;;;;3.73;1.80;;;;;;;9.60;100.00;95266.28;5016312;28;20283;-70
2023/12/11 07:48:06;;;;;;;7.57;2.27;;;;;;;9.58;100.00;95257.78;5015736;28;20408;-70
2023/12/11 07:50:33;;;;;;;4.00;1.87;;;;;;;9.56;100.00;95246.63;4999871;28;20222;-70
2023/12/11 07:53:00;;;;;;;4.03;1.67;;;;;;;9.47;100.00;95240.75;4998183;28;20198;-70
2023/12/11 07:55:28;;;;;;;8.23;2.00;;;;;;;9.45;100.00;95244.56;4997178;28;20199;-70
2023/12/11 07:57:54;;;;;;;2.80;1.57;;;;;;;9.54;100.00;95246.03;4997015;28;20206;-70
2023/12/11 08:00:21;;;;;;;3.00;1.43;;;;;;;9.63;100.00;95247.50;4996294;28;20218;-69
2023/12/11 08:02:48;;;;;;;2.13;1.47;;;;;;;9.61;100.00;95252.13;4996307;28;20233;-70
2023/12/11 08:05:15;;;;;;;3.60;1.50;;;;;;;9.63;100.00;95234.34;4995533;28;20596;-70
2023/12/11 08:07:43;;;;;;;7.07;1.90;;;;;;;9.63;100.00;95239.59;5007123;28;21429;-70
2023/12/11 08:10:11;;;;;;;3.53;1.60;;;;;;;9.88;100.00;95237.06;4997347;28;20234;-70
2023/12/11 08:12:38;;;;;;;2.37;1.53;;;;;;;9.86;100.00;95230.38;4996734;28;20202;-70
2023/12/11 08:15:05;;;;;;;2.10;1.30;;;;;;;9.88;100.00;95226.56;4995900;28;20211;-70
2023/12/11 08:17:32;;;;;;;5.60;2.47;;;;;;;9.89;100.00;95224.72;4996166;28;20260;-69
2023/12/11 08:19:58;;;;;;;2.90;1.73;;;;;;;10.05;100.00;95214.69;4995117;28;20262;-69
2023/12/11 08:22:25;;;;;;;3.73;1.57;;;;;;;10.08;100.00;95219.56;4996162;28;20222;-70
2023/12/11 08:24:51;;;;;;;3.50;1.67;;;;;;;10.12;100.00;95226.06;4996197;28;20311;-70
2023/12/11 08:27:19;;;;;;;7.83;3.13;;;;;;;10.39;100.00;95227.75;4996136;28;20202;-71
2023/12/11 08:29:46;;;;;;;4.00;2.33;;;;;;;10.25;100.00;95226.09;4995169;28;20592;-70
2023/12/11 08:32:12;;;;;;;2.57;1.53;;;;;;;10.31;100.00;95225.31;4997212;28;20209;-71
2023/12/11 08:34:39;;;;;;;4.60;1.43;;;;;;;10.26;100.00;95230.34;4995774;28;20204;-70
2023/12/11 08:37:05;;;;;;;3.77;2.10;;;;;;;10.42;100.00;95248.41;4995621;28;20206;-69
2023/12/11 08:39:32;;;;;;;6.03;2.03;;;;;;;10.50;100.00;95251.66;4995605;28;20207;-70
2023/12/11 08:41:58;;;;;;;2.17;1.33;;;;;;;10.52;100.00;95262.00;5003462;28;20321;-70
2023/12/11 08:44:26;;;;;;;1.70;1.40;;;;;;;10.63;100.00;95264.06;4994993;28;20203;-68
2023/12/11 08:46:53;;;;;;;2.13;1.67;;;;;;;10.50;100.00;95267.47;5000672;28;20211;-68
2023/12/11 08:49:20;;;;;;;4.77;1.73;;;;;;;10.30;100.00;95276.34;4995217;28;20220;-68
2023/12/11 08:51:46;;;;;;;5.43;1.97;;;;;;;10.37;100.00;95279.78;4993938;28;20321;-70
2023/12/11 08:54:13;;;;;;;8.23;1.67;;;;;;;10.40;100.00;95284.69;4996901;28;20203;-69
2023/12/11 08:56:40;;;;;;;5.50;1.57;;;;;;;10.39;100.00;95272.50;4995042;28;20207;-68
2023/12/11 08:59:06;;;;;;;1.93;1.67;;;;;;;10.57;100.00;95260.38;4995211;28;20202;-70
2023/12/11 09:01:35;;;;;;;1.47;1.20;;;;;;;10.67;100.00;95257.38;5000163;28;20229;-69
2023/12/11 09:04:02;;;;;;;0.77;0.50;;;;;;;10.53;100.00;95263.63;4995013;28;20843;-70
2023/12/11 09:06:28;;;;;;;0.80;0.80;;;;;;;10.58;100.00;95263.84;4994765;28;20254;-70
2023/12/11 09:08:55;;;;;;;0.77;0.67;;;;;;;10.65;100.00;95251.47;4994292;28;20245;-69
2023/12/11 09:11:22;;;;;;;2.33;0.90;;;;;;;10.69;100.00;95234.25;5002082;28;20231;-70
2023/12/11 09:13:48;;;;;;;0.60;0.60;;;;;;;10.75;100.00;95229.00;4994862;28;20198;-69
2023/12/11 09:16:16;;;;;;;0.73;0.70;;;;;;;10.93;100.00;95217.84;5002729;28;20217;-69
2023/12/11 09:18:43;;;;;;;1.70;1.07;;;;;;;11.08;100.00;95204.25;4994245;28;20214;-70
2023/12/11 09:21:10;;;;;;;1.90;0.90;;;;;;;11.01;100.00;95219.25;4993919;28;20791;-69
2023/12/11 09:23:37;;;;;;;1.17;0.87;;;;;;;10.93;100.00;95239.72;4993804;28;20226;-69
2023/12/11 09:26:04;;;;;;;1.50;1.20;;;;;;;11.21;100.00;95246.41;4995424;28;20242;-70
2023/12/11 09:28:30;;;;;;;1.20;0.93;;;;;;;11.02;100.00;95252.53;4997501;28;20202;-70
2023/12/11 09:30:57;;;;;;;2.97;1.07;;;;;;;11.14;100.00;95223.72;4997558;28;20227;-69
2023/12/11 09:33:23;;;;;;;1.63;1.40;;;;;;;11.16;100.00;95240.13;4998478;28;20190;-69
2023/12/11 09:35:51;;;;;;;1.70;1.30;;;;;;;11.29;100.00;95237.47;4997701;28;20205;-70
2023/12/11 09:38:18;;;;;;;1.97;1.20;;;;;;;11.05;100.00;95252.09;4997482;28;20206;-69
2023/12/11 09:40:44;;;;;;;1.20;1.10;;;;;;;11.10;100.00;95270.75;4997413;28;20230;-70
2023/12/11 09:43:11;;;;;;;2.00;1.07;;;;;;;11.02;100.00;95278.88;4998086;28;20229;-70
2023/12/11 09:45:38;;;;;;;2.37;1.37;;;;;;;11.03;100.00;95295.50;4998488;28;20216;-69
2023/12/11 09:48:05;;;;;;;2.90;1.33;;;;;;;10.86;100.00;95293.44;4999722;28;20669;-70
2023/12/11 09:50:32;;;;;;;2.40;1.40;;;;;;;10.85;100.00;95297.13;5004805;28;20230;-70
2023/12/11 09:53:01;;;;;;;2.00;1.13;;;;;;;11.08;100.00;95295.72;4999347;28;20233;-70
2023/12/11 09:55:28;;;;;;;0.97;0.70;;;;;;;10.93;100.00;95295.91;5003646;28;20202;-70
2023/12/11 09:57:56;;;;;;;2.50;1.70;;;;;;;10.98;100.00;95277.66;4995746;28;20209;-68
2023/12/11 10:00:23;;;;;;;1.50;1.17;;;;;;;11.08;100.00;95278.06;4994914;28;20331;-72
2023/12/11 10:02:51;;;;;;;3.33;1.73;;;;;;;11.06;100.00;95274.00;4994819;28;20226;-70
2023/12/11 10:05:24;;;;;;;2.23;1.20;;;;;;;11.26;100.00;95257.16;4996789;28;20206;-73
2023/12/11 10:07:50;;;;;;;2.10;1.40;;;;;;;11.07;100.00;95252.72;5001503;28;20325;-72
2023/12/11 10:10:22;;;;;;;6.97;2.60;;;;;;;11.34;100.00;95230.59;4995884;28;20234;-69
2023/12/11 10:12:48;;;;;;;7.87;1.97;;;;;;;11.24;100.00;95232.81;4995688;28;20198;-72
2023/12/11 10:15:20;;;;;;;3.17;1.73;;;;;;;11.60;100.00;95247.19;4995778;28;20210;-69
2023/12/11 10:17:46;;;;;;;3.43;1.50;;;;;;;11.42;100.00;95230.38;4995900;28;20294;-73
2023/12/11 10:20:17;;;;;;;6.27;2.40;;;;;;;11.57;100.00;95252.09;4995645;28;20258;-71
2023/12/11 10:22:44;;;;;;;6.40;1.53;;;;;;;11.48;100.00;95248.00;4996807;28;20233;-69
2023/12/11 10:25:10;;;;;;;1.00;0.90;;;;;;;11.65;100.00;95238.66;5004094;28;20210;-70
2023/12/11 10:27:39;;;;;;;1.73;1.20;;;;;;;11.73;100.00;95254.25;5004357;28;21041;-72
2023/12/11 10:30:12;;;;;;;1.63;0.90;;;;;;;11.62;100.00;95252.25;4996081;28;20235;-72
2023/12/11 10:32:38;;;;;;;0.80;0.80;;;;;;;11.28;100.00;95264.88;4997002;28;20206;-71
2023/12/11 10:35:06;;;;;;;1.10;0.93;;;;;;;11.66;100.00;95275.38;4996011;28;20211;-69
2023/12/11 10:37:34;;;;;;;0.83;0.80;;;;;;;11.54;100.00;95264.88;4996388;28;20203;-69
2023/12/11 10:40:02;;;;;;;0.70;0.70;;;;;;;11.49;100.00;95260.16;4996655;28;20315;-69
2023/12/11 10:42:28;;;;;;;1.87;0.90;;;;;;;11.47;100.00;95240.28;4997286;28;20210;-70
2023/12/11 10:44:56;;;;;;;1.07;0.90;;;;;;;11.52;100.00;95238.69;4997930;28;20211;-70
2023/12/11 10:47:23;;;;;;;0.60;0.60;;;;;;;11.74;100.00;95274.38;4996354;28;20205;-69
2023/12/11 10:49:50;;;;;;;1.37;1.00;;;;;;;11.75;100.00;95270.72;4995499;28;20206;-70
2023/12/11 10:52:17;;;;;;;3.37;1.30;;;;;;;11.86;100.00;95241.84;5002741;28;20229;-70
2023/12/11 10:54:45;;;;;;;1.40;0.70;;;;;;;11.99;100.00;95225.97;4997115;28;20202;-69
2023/12/11 10:57:14;;;;;;;0.97;0.80;;;;;;;12.14;100.00;95221.19;4995840;28;20211;-69
2023/12/11 10:59:41;;;;;;;0.80;0.60;;;;;;;11.99;100.00;95219.84;4995211;28;20206;-70
2023/12/11 11:02:10;;;;;;;0.60;0.60;;;;;;;12.13;100.00;95221.41;4997423;28;20206;-69
2023/12/11 11:04:41;;;;;;;1.83;0.80;;;;;;;12.16;100.00;95222.59;4995752;28;20221;-68
2023/12/11 11:07:15;;;;;;;0.60;0.53;;;;;;;11.87;100.00;95226.81;4995828;28;20767;-69
2023/12/11 11:09:50;;;;;;;1.67;0.70;;;;;;;12.08;100.00;95234.44;4995885;28;20199;-70
2023/12/11 11:12:22;;;;;;;0.60;0.60;;;;;;;12.15;100.00;95230.75;4996500;28;20222;-70
2023/12/11 11:14:49;;;;;;;2.97;1.23;;;;;;;12.31;100.00;95220.50;4995648;28;20203;-70
2023/12/11 11:17:17;;;;;;;1.63;0.87;;;;;;;12.18;100.00;95225.03;4996425;28;20209;-69
2023/12/11 11:20:13;;;;;;;1.27;0.70;;;;;;;12.51;100.00;95229.13;4995016;28;20712;-69
2023/12/11 11:22:40;;;;;;;1.03;0.80;;;;;;;12.40;100.00;95248.28;4994234;28;20641;-69
2023/12/11 11:25:36;;;;;;;0.60;0.60;;;;;;;12.53;100.00;95260.63;4995819;28;20575;-69
2023/12/11 11:28:03;;;;;;;0.90;0.80;;;;;;;12.16;100.00;95257.97;4962006;28;20222;-69
2023/12/11 11:30:52;;;;;;;0.60;0.60;;;;;;;12.74;100.00;95257.63;4996250;28;20227;-69